sensor_id;sensor_type;location;lat;lon;timestamp;temperature;humidity
14529;DHT22;7351;51.194;4.098;2023-05-27T00:02:04;21.00;97.50
14529;DHT22;7351;51.194;4.098;2023-05-27T00:04:31;21.00;97.50
14529;DHT22;7351;51.194;4.098;2023-05-27T00:06:58;21.00;97.60
14529;DHT22;7351;51.194;4.098;2023-05-27T00:09:25;21.00;97.60
14529;DHT22;7351;51.194;4.098;2023-05-27T00:11:54;21.00;97.70
14529;DHT22;7351;51.194;4.098;2023-05-27T00:14:21;21.00;97.70
14529;DHT22;7351;51.194;4.098;2023-05-27T00:16:48;21.00;97.70
14529;DHT22;7351;51.194;4.098;2023-05-27T00:19:16;21.00;97.80
14529;DHT22;7351;51.194;4.098;2023-05-27T00:21:43;21.00;97.80
14529;DHT22;7351;51.194;4.098;2023-05-27T00:24:10;21.00;97.90
14529;DHT22;7351;51.194;4.098;2023-05-27T00:26:37;21.00;97.90
14529;DHT22;7351;51.194;4.098;2023-05-27T00:29:06;21.00;98.00
14529;DHT22;7351;51.194;4.098;2023-05-27T00:31:33;20.90;98.00
14529;DHT22;7351;51.194;4.098;2023-05-27T00:34:00;21.00;98.10
14529;DHT22;7351;51.194;4.098;2023-05-27T00:36:27;20.90;98.00
14529;DHT22;7351;51.194;4.098;2023-05-27T00:38:54;20.90;98.10
14529;DHT22;7351;51.194;4.098;2023-05-27T00:41:21;20.90;98.10
14529;DHT22;7351;51.194;4.098;2023-05-27T00:43:48;20.90;98.10
14529;DHT22;7351;51.194;4.098;2023-05-27T00:46:18;20.90;98.20
14529;DHT22;7351;51.194;4.098;2023-05-27T00:48:45;20.90;98.20
14529;DHT22;7351;51.194;4.098;2023-05-27T00:51:14;20.90;98.30
14529;DHT22;7351;51.194;4.098;2023-05-27T00:53:43;20.90;98.30
14529;DHT22;7351;51.194;4.098;2023-05-27T00:56:11;20.90;98.30
14529;DHT22;7351;51.194;4.098;2023-05-27T00:58:42;20.80;98.30
14529;DHT22;7351;51.194;4.098;2023-05-27T01:01:10;20.80;98.60
14529;DHT22;7351;51.194;4.098;2023-05-27T01:03:39;20.80;98.40
14529;DHT22;7351;51.194;4.098;2023-05-27T01:06:14;20.80;98.40
14529;DHT22;7351;51.194;4.098;2023-05-27T01:08:51;20.80;98.50
14529;DHT22;7351;51.194;4.098;2023-05-27T01:11:24;20.80;98.50
14529;DHT22;7351;51.194;4.098;2023-05-27T01:13:58;20.80;98.50
14529;DHT22;7351;51.194;4.098;2023-05-27T01:16:26;20.80;98.50
14529;DHT22;7351;51.194;4.098;2023-05-27T01:18:58;20.80;98.60
14529;DHT22;7351;51.194;4.098;2023-05-27T01:21:30;20.80;98.60
14529;DHT22;7351;51.194;4.098;2023-05-27T01:24:03;20.80;98.70
14529;DHT22;7351;51.194;4.098;2023-05-27T01:26:31;20.80;98.70
14529;DHT22;7351;51.194;4.098;2023-05-27T01:28:58;20.80;98.70
14529;DHT22;7351;51.194;4.098;2023-05-27T01:31:29;20.80;98.80
14529;DHT22;7351;51.194;4.098;2023-05-27T01:34:00;20.70;98.70
14529;DHT22;7351;51.194;4.098;2023-05-27T01:36:32;20.70;98.80
14529;DHT22;7351;51.194;4.098;2023-05-27T01:39:00;20.70;98.80
14529;DHT22;7351;51.194;4.098;2023-05-27T01:41:30;20.70;98.90
14529;DHT22;7351;51.194;4.098;2023-05-27T01:43:58;20.70;98.90
14529;DHT22;7351;51.194;4.098;2023-05-27T01:46:25;20.70;98.80
14529;DHT22;7351;51.194;4.098;2023-05-27T01:48:52;20.70;98.90
14529;DHT22;7351;51.194;4.098;2023-05-27T01:51:19;20.70;98.90
14529;DHT22;7351;51.194;4.098;2023-05-27T01:53:46;20.70;98.90
14529;DHT22;7351;51.194;4.098;2023-05-27T01:56:13;20.70;98.90
14529;DHT22;7351;51.194;4.098;2023-05-27T01:58:41;20.70;98.90
14529;DHT22;7351;51.194;4.098;2023-05-27T02:01:08;20.70;99.00
14529;DHT22;7351;51.194;4.098;2023-05-27T02:03:36;20.70;99.00
14529;DHT22;7351;51.194;4.098;2023-05-27T02:06:03;20.70;99.00
14529;DHT22;7351;51.194;4.098;2023-05-27T02:08:30;20.70;99.10
14529;DHT22;7351;51.194;4.098;2023-05-27T02:10:57;20.70;99.10
14529;DHT22;7351;51.194;4.098;2023-05-27T02:13:24;20.70;99.20
14529;DHT22;7351;51.194;4.098;2023-05-27T02:15:52;20.70;99.20
14529;DHT22;7351;51.194;4.098;2023-05-27T02:18:19;20.70;99.30
14529;DHT22;7351;51.194;4.098;2023-05-27T02:20:46;20.60;99.20
14529;DHT22;7351;51.194;4.098;2023-05-27T02:23:13;20.70;99.30
14529;DHT22;7351;51.194;4.098;2023-05-27T02:25:40;20.70;99.30
14529;DHT22;7351;51.194;4.098;2023-05-27T02:28:07;20.60;99.30
14529;DHT22;7351;51.194;4.098;2023-05-27T02:30:34;20.60;99.30
14529;DHT22;7351;51.194;4.098;2023-05-27T02:33:03;20.60;99.30
14529;DHT22;7351;51.194;4.098;2023-05-27T02:35:29;20.60;99.40
14529;DHT22;7351;51.194;4.098;2023-05-27T02:37:56;20.60;99.40
14529;DHT22;7351;51.194;4.098;2023-05-27T02:40:24;20.60;99.50
14529;DHT22;7351;51.194;4.098;2023-05-27T02:42:51;20.60;99.50
14529;DHT22;7351;51.194;4.098;2023-05-27T02:45:18;20.50;99.40
14529;DHT22;7351;51.194;4.098;2023-05-27T02:47:45;20.60;99.50
14529;DHT22;7351;51.194;4.098;2023-05-27T02:50:14;20.60;99.50
14529;DHT22;7351;51.194;4.098;2023-05-27T02:52:41;20.60;99.60
14529;DHT22;7351;51.194;4.098;2023-05-27T02:55:08;20.60;99.60
14529;DHT22;7351;51.194;4.098;2023-05-27T02:57:35;20.60;99.70
14529;DHT22;7351;51.194;4.098;2023-05-27T03:00:03;20.50;99.60
14529;DHT22;7351;51.194;4.098;2023-05-27T03:02:30;20.60;99.70
14529;DHT22;7351;51.194;4.098;2023-05-27T03:04:57;20.50;99.70
14529;DHT22;7351;51.194;4.098;2023-05-27T03:07:27;20.50;99.70
14529;DHT22;7351;51.194;4.098;2023-05-27T03:09:56;20.50;99.70
14529;DHT22;7351;51.194;4.098;2023-05-27T03:12:23;20.50;99.70
14529;DHT22;7351;51.194;4.098;2023-05-27T03:14:50;20.50;99.70
14529;DHT22;7351;51.194;4.098;2023-05-27T03:17:18;20.50;99.70
14529;DHT22;7351;51.194;4.098;2023-05-27T03:19:45;20.50;99.70
14529;DHT22;7351;51.194;4.098;2023-05-27T03:22:12;20.50;99.70
14529;DHT22;7351;51.194;4.098;2023-05-27T03:24:41;20.50;99.80
14529;DHT22;7351;51.194;4.098;2023-05-27T03:27:08;20.50;99.80
14529;DHT22;7351;51.194;4.098;2023-05-27T03:29:35;20.50;99.80
14529;DHT22;7351;51.194;4.098;2023-05-27T03:32:02;20.50;99.80
14529;DHT22;7351;51.194;4.098;2023-05-27T03:34:29;20.50;99.90
14529;DHT22;7351;51.194;4.098;2023-05-27T03:36:56;20.50;99.90
14529;DHT22;7351;51.194;4.098;2023-05-27T03:39:23;20.50;99.90
14529;DHT22;7351;51.194;4.098;2023-05-27T03:41:51;20.50;99.90
14529;DHT22;7351;51.194;4.098;2023-05-27T03:44:18;20.40;99.80
14529;DHT22;7351;51.194;4.098;2023-05-27T03:46:45;20.40;99.90
14529;DHT22;7351;51.194;4.098;2023-05-27T03:49:12;20.40;99.90
14529;DHT22;7351;51.194;4.098;2023-05-27T03:51:39;20.40;99.90
14529;DHT22;7351;51.194;4.098;2023-05-27T03:54:06;20.30;99.90
14529;DHT22;7351;51.194;4.098;2023-05-27T03:56:33;20.30;99.90
14529;DHT22;7351;51.194;4.098;2023-05-27T03:59:02;20.30;99.90
14529;DHT22;7351;51.194;4.098;2023-05-27T04:01:29;20.30;99.90
14529;DHT22;7351;51.194;4.098;2023-05-27T04:03:55;20.30;99.90
14529;DHT22;7351;51.194;4.098;2023-05-27T04:06:22;20.30;99.90
14529;DHT22;7351;51.194;4.098;2023-05-27T04:08:50;20.30;99.90
14529;DHT22;7351;51.194;4.098;2023-05-27T04:11:17;20.30;99.90
14529;DHT22;7351;51.194;4.098;2023-05-27T04:13:44;20.30;99.80
14529;DHT22;7351;51.194;4.098;2023-05-27T04:16:13;20.30;99.90
14529;DHT22;7351;51.194;4.098;2023-05-27T04:18:40;20.30;99.90
14529;DHT22;7351;51.194;4.098;2023-05-27T04:21:07;20.30;99.90
14529;DHT22;7351;51.194;4.098;2023-05-27T04:23:34;20.30;99.90
14529;DHT22;7351;51.194;4.098;2023-05-27T04:26:02;20.30;99.90
14529;DHT22;7351;51.194;4.098;2023-05-27T04:28:30;20.30;99.90
14529;DHT22;7351;51.194;4.098;2023-05-27T04:30:57;20.30;99.90
14529;DHT22;7351;51.194;4.098;2023-05-27T04:33:25;20.30;99.90
14529;DHT22;7351;51.194;4.098;2023-05-27T04:35:53;20.30;99.90
14529;DHT22;7351;51.194;4.098;2023-05-27T04:38:21;20.30;99.90
14529;DHT22;7351;51.194;4.098;2023-05-27T04:40:49;20.30;99.90
14529;DHT22;7351;51.194;4.098;2023-05-27T04:43:18;20.20;99.90
14529;DHT22;7351;51.194;4.098;2023-05-27T04:45:45;20.30;99.90
14529;DHT22;7351;51.194;4.098;2023-05-27T04:48:12;20.30;99.90
14529;DHT22;7351;51.194;4.098;2023-05-27T04:50:41;20.30;99.90
14529;DHT22;7351;51.194;4.098;2023-05-27T04:53:08;20.30;99.90
14529;DHT22;7351;51.194;4.098;2023-05-27T04:55:35;20.30;99.90
14529;DHT22;7351;51.194;4.098;2023-05-27T04:58:02;20.30;99.90
14529;DHT22;7351;51.194;4.098;2023-05-27T05:00:29;20.20;99.90
14529;DHT22;7351;51.194;4.098;2023-05-27T05:03:04;20.30;99.90
14529;DHT22;7351;51.194;4.098;2023-05-27T05:05:33;20.20;99.90
14529;DHT22;7351;51.194;4.098;2023-05-27T05:08:01;20.20;99.90
14529;DHT22;7351;51.194;4.098;2023-05-27T05:10:29;20.20;99.90
14529;DHT22;7351;51.194;4.098;2023-05-27T05:12:56;20.20;99.90
14529;DHT22;7351;51.194;4.098;2023-05-27T05:15:23;20.20;99.90
14529;DHT22;7351;51.194;4.098;2023-05-27T05:17:50;20.20;99.90
14529;DHT22;7351;51.194;4.098;2023-05-27T05:20:17;20.20;99.90
14529;DHT22;7351;51.194;4.098;2023-05-27T05:22:44;20.20;99.90
14529;DHT22;7351;51.194;4.098;2023-05-27T05:25:12;20.20;99.90
14529;DHT22;7351;51.194;4.098;2023-05-27T05:27:40;20.20;99.90
14529;DHT22;7351;51.194;4.098;2023-05-27T05:30:08;20.10;99.90
14529;DHT22;7351;51.194;4.098;2023-05-27T05:32:35;20.10;99.90
14529;DHT22;7351;51.194;4.098;2023-05-27T05:35:02;20.10;99.70
14529;DHT22;7351;51.194;4.098;2023-05-27T05:37:29;20.00;99.40
14529;DHT22;7351;51.194;4.098;2023-05-27T05:39:56;20.00;99.20
14529;DHT22;7351;51.194;4.098;2023-05-27T05:42:24;20.00;98.90
14529;DHT22;7351;51.194;4.098;2023-05-27T05:44:51;20.00;99.00
14529;DHT22;7351;51.194;4.098;2023-05-27T05:47:18;20.00;98.30
14529;DHT22;7351;51.194;4.098;2023-05-27T05:49:45;19.90;98.40
14529;DHT22;7351;51.194;4.098;2023-05-27T05:52:12;20.00;98.60
14529;DHT22;7351;51.194;4.098;2023-05-27T05:54:39;19.90;98.20
14529;DHT22;7351;51.194;4.098;2023-05-27T05:57:06;19.90;97.70
14529;DHT22;7351;51.194;4.098;2023-05-27T05:59:34;19.90;97.60
14529;DHT22;7351;51.194;4.098;2023-05-27T06:02:01;20.00;97.30
14529;DHT22;7351;51.194;4.098;2023-05-27T06:04:28;20.00;97.10
14529;DHT22;7351;51.194;4.098;2023-05-27T06:06:55;19.90;96.70
14529;DHT22;7351;51.194;4.098;2023-05-27T06:09:22;19.90;96.90
14529;DHT22;7351;51.194;4.098;2023-05-27T06:11:50;19.90;96.80
14529;DHT22;7351;51.194;4.098;2023-05-27T06:14:18;19.90;97.00
14529;DHT22;7351;51.194;4.098;2023-05-27T06:16:46;19.90;96.90
14529;DHT22;7351;51.194;4.098;2023-05-27T06:19:13;19.80;96.80
14529;DHT22;7351;51.194;4.098;2023-05-27T06:21:40;19.80;96.70
14529;DHT22;7351;51.194;4.098;2023-05-27T06:24:07;19.90;96.60
14529;DHT22;7351;51.194;4.098;2023-05-27T06:26:34;19.90;96.50
14529;DHT22;7351;51.194;4.098;2023-05-27T06:29:01;19.90;96.50
14529;DHT22;7351;51.194;4.098;2023-05-27T06:31:28;19.80;96.40
14529;DHT22;7351;51.194;4.098;2023-05-27T06:33:57;19.90;96.50
14529;DHT22;7351;51.194;4.098;2023-05-27T06:36:24;19.90;96.70
14529;DHT22;7351;51.194;4.098;2023-05-27T06:38:51;19.80;96.80
14529;DHT22;7351;51.194;4.098;2023-05-27T06:41:18;19.90;96.60
14529;DHT22;7351;51.194;4.098;2023-05-27T06:43:45;19.80;97.10
14529;DHT22;7351;51.194;4.098;2023-05-27T06:46:12;19.80;97.30
14529;DHT22;7351;51.194;4.098;2023-05-27T06:48:39;19.80;97.20
14529;DHT22;7351;51.194;4.098;2023-05-27T06:51:08;19.80;97.20
14529;DHT22;7351;51.194;4.098;2023-05-27T06:53:35;19.80;97.10
14529;DHT22;7351;51.194;4.098;2023-05-27T06:56:02;19.80;97.00
14529;DHT22;7351;51.194;4.098;2023-05-27T06:58:29;19.80;97.00
14529;DHT22;7351;51.194;4.098;2023-05-27T07:00:56;19.80;97.00
14529;DHT22;7351;51.194;4.098;2023-05-27T07:03:23;19.80;96.80
14529;DHT22;7351;51.194;4.098;2023-05-27T07:05:50;19.90;96.80
14529;DHT22;7351;51.194;4.098;2023-05-27T07:08:18;19.80;96.60
14529;DHT22;7351;51.194;4.098;2023-05-27T07:10:45;19.80;96.80
14529;DHT22;7351;51.194;4.098;2023-05-27T07:13:12;19.80;96.80
14529;DHT22;7351;51.194;4.098;2023-05-27T07:15:41;19.80;96.80
14529;DHT22;7351;51.194;4.098;2023-05-27T07:18:08;19.90;96.80
14529;DHT22;7351;51.194;4.098;2023-05-27T07:20:35;19.90;96.80
14529;DHT22;7351;51.194;4.098;2023-05-27T07:23:02;19.90;96.90
14529;DHT22;7351;51.194;4.098;2023-05-27T07:25:30;19.90;96.80
14529;DHT22;7351;51.194;4.098;2023-05-27T07:27:57;19.90;96.90
14529;DHT22;7351;51.194;4.098;2023-05-27T07:30:24;19.90;96.90
14529;DHT22;7351;51.194;4.098;2023-05-27T07:32:52;20.00;97.10
14529;DHT22;7351;51.194;4.098;2023-05-27T07:35:19;20.00;97.20
14529;DHT22;7351;51.194;4.098;2023-05-27T07:37:46;19.90;97.30
14529;DHT22;7351;51.194;4.098;2023-05-27T07:40:13;19.90;97.30
14529;DHT22;7351;51.194;4.098;2023-05-27T07:42:42;20.00;97.40
14529;DHT22;7351;51.194;4.098;2023-05-27T07:45:09;20.00;97.40
14529;DHT22;7351;51.194;4.098;2023-05-27T07:47:36;20.00;97.50
14529;DHT22;7351;51.194;4.098;2023-05-27T07:50:04;20.00;97.60
14529;DHT22;7351;51.194;4.098;2023-05-27T07:52:31;20.00;97.70
14529;DHT22;7351;51.194;4.098;2023-05-27T07:54:58;20.10;97.80
14529;DHT22;7351;51.194;4.098;2023-05-27T07:57:25;20.10;97.80
14529;DHT22;7351;51.194;4.098;2023-05-27T07:59:54;20.00;97.80
14529;DHT22;7351;51.194;4.098;2023-05-27T08:02:20;20.10;97.90
14529;DHT22;7351;51.194;4.098;2023-05-27T08:04:48;20.10;98.00
14529;DHT22;7351;51.194;4.098;2023-05-27T08:07:15;20.10;98.00
14529;DHT22;7351;51.194;4.098;2023-05-27T08:09:42;20.10;98.10
14529;DHT22;7351;51.194;4.098;2023-05-27T08:12:09;20.10;98.10
14529;DHT22;7351;51.194;4.098;2023-05-27T08:14:38;20.10;98.20
14529;DHT22;7351;51.194;4.098;2023-05-27T08:17:07;20.10;98.20
14529;DHT22;7351;51.194;4.098;2023-05-27T08:19:34;20.10;98.30
14529;DHT22;7351;51.194;4.098;2023-05-27T08:22:01;20.10;98.30
14529;DHT22;7351;51.194;4.098;2023-05-27T08:24:29;20.10;98.40
14529;DHT22;7351;51.194;4.098;2023-05-27T08:26:57;20.10;98.40
14529;DHT22;7351;51.194;4.098;2023-05-27T08:29:24;20.20;98.40
14529;DHT22;7351;51.194;4.098;2023-05-27T08:31:53;20.20;98.50
14529;DHT22;7351;51.194;4.098;2023-05-27T08:34:22;20.20;98.50
14529;DHT22;7351;51.194;4.098;2023-05-27T08:36:49;20.20;98.60
14529;DHT22;7351;51.194;4.098;2023-05-27T08:39:16;20.20;98.70
14529;DHT22;7351;51.194;4.098;2023-05-27T08:41:43;20.20;98.70
14529;DHT22;7351;51.194;4.098;2023-05-27T08:44:10;20.20;98.80
14529;DHT22;7351;51.194;4.098;2023-05-27T08:46:37;20.20;98.80
14529;DHT22;7351;51.194;4.098;2023-05-27T08:49:06;20.20;98.80
14529;DHT22;7351;51.194;4.098;2023-05-27T08:51:36;20.20;98.90
14529;DHT22;7351;51.194;4.098;2023-05-27T08:54:04;20.20;98.90
14529;DHT22;7351;51.194;4.098;2023-05-27T08:56:33;20.20;99.00
14529;DHT22;7351;51.194;4.098;2023-05-27T08:59:01;20.20;99.10
14529;DHT22;7351;51.194;4.098;2023-05-27T09:01:29;20.30;99.20
14529;DHT22;7351;51.194;4.098;2023-05-27T09:03:57;20.20;99.20
14529;DHT22;7351;51.194;4.098;2023-05-27T09:06:24;20.30;99.30
14529;DHT22;7351;51.194;4.098;2023-05-27T09:08:52;20.30;99.30
14529;DHT22;7351;51.194;4.098;2023-05-27T09:11:24;20.30;99.30
14529;DHT22;7351;51.194;4.098;2023-05-27T09:13:54;20.30;99.30
14529;DHT22;7351;51.194;4.098;2023-05-27T09:16:22;20.30;99.30
14529;DHT22;7351;51.194;4.098;2023-05-27T09:18:49;20.40;99.40
14529;DHT22;7351;51.194;4.098;2023-05-27T09:21:16;20.30;99.40
14529;DHT22;7351;51.194;4.098;2023-05-27T09:23:44;20.40;99.50
14529;DHT22;7351;51.194;4.098;2023-05-27T09:26:12;20.40;99.50
14529;DHT22;7351;51.194;4.098;2023-05-27T09:28:40;20.40;99.50
14529;DHT22;7351;51.194;4.098;2023-05-27T09:31:08;20.40;99.50
14529;DHT22;7351;51.194;4.098;2023-05-27T09:33:37;20.40;99.50
14529;DHT22;7351;51.194;4.098;2023-05-27T09:36:05;20.40;99.50
14529;DHT22;7351;51.194;4.098;2023-05-27T09:38:35;20.50;99.60
14529;DHT22;7351;51.194;4.098;2023-05-27T09:41:03;20.50;99.60
14529;DHT22;7351;51.194;4.098;2023-05-27T09:43:31;20.60;99.60
14529;DHT22;7351;51.194;4.098;2023-05-27T09:45:59;20.50;99.50
14529;DHT22;7351;51.194;4.098;2023-05-27T09:48:29;20.60;99.50
14529;DHT22;7351;51.194;4.098;2023-05-27T09:50:57;20.60;99.50
14529;DHT22;7351;51.194;4.098;2023-05-27T09:53:25;20.60;99.50
14529;DHT22;7351;51.194;4.098;2023-05-27T09:55:52;20.60;99.50
14529;DHT22;7351;51.194;4.098;2023-05-27T09:58:20;20.70;99.60
14529;DHT22;7351;51.194;4.098;2023-05-27T10:00:49;20.70;99.60
14529;DHT22;7351;51.194;4.098;2023-05-27T10:03:16;20.70;99.60
14529;DHT22;7351;51.194;4.098;2023-05-27T10:05:44;20.70;99.60
14529;DHT22;7351;51.194;4.098;2023-05-27T10:08:11;20.70;99.60
14529;DHT22;7351;51.194;4.098;2023-05-27T10:10:39;20.70;99.60
14529;DHT22;7351;51.194;4.098;2023-05-27T10:13:06;20.70;99.50
14529;DHT22;7351;51.194;4.098;2023-05-27T10:15:33;20.70;99.70
14529;DHT22;7351;51.194;4.098;2023-05-27T10:18:04;20.80;99.80
14529;DHT22;7351;51.194;4.098;2023-05-27T10:20:37;20.80;99.70
14529;DHT22;7351;51.194;4.098;2023-05-27T10:23:11;20.80;99.40
14529;DHT22;7351;51.194;4.098;2023-05-27T10:25:39;20.80;99.20
14529;DHT22;7351;51.194;4.098;2023-05-27T10:28:06;20.80;99.10
14529;DHT22;7351;51.194;4.098;2023-05-27T10:30:43;20.90;99.00
14529;DHT22;7351;51.194;4.098;2023-05-27T10:33:12;20.90;98.90
14529;DHT22;7351;51.194;4.098;2023-05-27T10:35:40;20.90;98.80
14529;DHT22;7351;51.194;4.098;2023-05-27T10:38:15;20.90;98.70
14529;DHT22;7351;51.194;4.098;2023-05-27T10:40:43;20.90;98.80
14529;DHT22;7351;51.194;4.098;2023-05-27T10:43:15;20.90;98.80
14529;DHT22;7351;51.194;4.098;2023-05-27T10:45:43;20.90;98.70
14529;DHT22;7351;51.194;4.098;2023-05-27T10:48:19;21.00;98.70
14529;DHT22;7351;51.194;4.098;2023-05-27T10:50:50;21.00;98.60
14529;DHT22;7351;51.194;4.098;2023-05-27T10:53:19;21.00;98.60
14529;DHT22;7351;51.194;4.098;2023-05-27T10:55:47;21.00;98.60
14529;DHT22;7351;51.194;4.098;2023-05-27T10:58:15;21.00;98.70
14529;DHT22;7351;51.194;4.098;2023-05-27T11:00:44;21.00;98.70
14529;DHT22;7351;51.194;4.098;2023-05-27T11:03:20;21.10;98.70
14529;DHT22;7351;51.194;4.098;2023-05-27T11:05:57;21.10;98.60
14529;DHT22;7351;51.194;4.098;2023-05-27T11:08:24;21.20;98.60
14529;DHT22;7351;51.194;4.098;2023-05-27T11:10:57;21.20;98.60
14529;DHT22;7351;51.194;4.098;2023-05-27T11:13:30;21.20;98.60
14529;DHT22;7351;51.194;4.098;2023-05-27T11:15:57;21.20;98.60
14529;DHT22;7351;51.194;4.098;2023-05-27T11:18:34;21.20;98.60
14529;DHT22;7351;51.194;4.098;2023-05-27T11:21:02;21.20;98.50
14529;DHT22;7351;51.194;4.098;2023-05-27T11:23:37;21.30;98.50
14529;DHT22;7351;51.194;4.098;2023-05-27T11:26:16;21.30;98.50
14529;DHT22;7351;51.194;4.098;2023-05-27T11:28:48;21.30;98.40
14529;DHT22;7351;51.194;4.098;2023-05-27T11:31:15;21.40;98.50
14529;DHT22;7351;51.194;4.098;2023-05-27T11:36:13;21.40;98.40
14529;DHT22;7351;51.194;4.098;2023-05-27T11:38:53;21.40;98.30
14529;DHT22;7351;51.194;4.098;2023-05-27T11:41:22;21.50;98.20
14529;DHT22;7351;51.194;4.098;2023-05-27T11:43:52;21.50;98.00
14529;DHT22;7351;51.194;4.098;2023-05-27T11:46:20;21.50;98.00
14529;DHT22;7351;51.194;4.098;2023-05-27T11:48:49;21.50;97.90
14529;DHT22;7351;51.194;4.098;2023-05-27T11:51:16;21.60;97.90
14529;DHT22;7351;51.194;4.098;2023-05-27T11:53:45;21.60;97.90
14529;DHT22;7351;51.194;4.098;2023-05-27T11:56:12;21.60;97.90
14529;DHT22;7351;51.194;4.098;2023-05-27T11:58:40;21.60;97.90
14529;DHT22;7351;51.194;4.098;2023-05-27T12:01:07;21.60;97.90
14529;DHT22;7351;51.194;4.098;2023-05-27T12:03:34;21.70;98.00
14529;DHT22;7351;51.194;4.098;2023-05-27T12:06:04;21.70;98.10
14529;DHT22;7351;51.194;4.098;2023-05-27T12:08:32;21.70;98.00
14529;DHT22;7351;51.194;4.098;2023-05-27T12:11:00;21.80;98.00
14529;DHT22;7351;51.194;4.098;2023-05-27T12:13:28;21.80;98.00
14529;DHT22;7351;51.194;4.098;2023-05-27T12:15:58;21.80;98.00
14529;DHT22;7351;51.194;4.098;2023-05-27T12:18:25;21.80;97.80
14529;DHT22;7351;51.194;4.098;2023-05-27T12:20:53;21.90;97.80
14529;DHT22;7351;51.194;4.098;2023-05-27T12:23:21;21.90;97.80
14529;DHT22;7351;51.194;4.098;2023-05-27T12:25:48;21.90;97.70
14529;DHT22;7351;51.194;4.098;2023-05-27T12:28:16;22.00;97.70
14529;DHT22;7351;51.194;4.098;2023-05-27T12:30:44;22.00;97.60
14529;DHT22;7351;51.194;4.098;2023-05-27T12:33:12;22.00;97.50
14529;DHT22;7351;51.194;4.098;2023-05-27T12:35:39;22.10;97.60
14529;DHT22;7351;51.194;4.098;2023-05-27T12:38:06;22.10;97.50
14529;DHT22;7351;51.194;4.098;2023-05-27T12:40:35;22.10;97.30
14529;DHT22;7351;51.194;4.098;2023-05-27T12:43:03;22.20;97.10
14529;DHT22;7351;51.194;4.098;2023-05-27T12:45:30;22.20;96.90
14529;DHT22;7351;51.194;4.098;2023-05-27T12:47:57;22.20;96.90
14529;DHT22;7351;51.194;4.098;2023-05-27T12:50:25;22.30;96.90
14529;DHT22;7351;51.194;4.098;2023-05-27T12:52:52;22.30;97.00
14529;DHT22;7351;51.194;4.098;2023-05-27T12:55:20;22.30;96.90
14529;DHT22;7351;51.194;4.098;2023-05-27T12:57:50;22.40;96.80
14529;DHT22;7351;51.194;4.098;2023-05-27T13:00:19;22.40;96.80
14529;DHT22;7351;51.194;4.098;2023-05-27T13:02:46;22.40;96.80
14529;DHT22;7351;51.194;4.098;2023-05-27T13:05:14;22.40;96.70
14529;DHT22;7351;51.194;4.098;2023-05-27T13:07:53;22.50;96.60
14529;DHT22;7351;51.194;4.098;2023-05-27T13:10:21;22.50;96.60
14529;DHT22;7351;51.194;4.098;2023-05-27T13:12:49;22.50;94.60
14529;DHT22;7351;51.194;4.098;2023-05-27T13:15:16;22.50;96.40
14529;DHT22;7351;51.194;4.098;2023-05-27T13:17:43;22.50;96.30
14529;DHT22;7351;51.194;4.098;2023-05-27T13:20:11;22.60;96.10
14529;DHT22;7351;51.194;4.098;2023-05-27T13:22:39;22.60;95.90
14529;DHT22;7351;51.194;4.098;2023-05-27T13:25:07;22.60;95.80
14529;DHT22;7351;51.194;4.098;2023-05-27T13:27:34;22.60;95.70
14529;DHT22;7351;51.194;4.098;2023-05-27T13:30:03;22.70;95.80
14529;DHT22;7351;51.194;4.098;2023-05-27T13:32:30;22.70;96.00
14529;DHT22;7351;51.194;4.098;2023-05-27T13:34:57;22.70;96.00
14529;DHT22;7351;51.194;4.098;2023-05-27T13:37:24;22.80;96.20
14529;DHT22;7351;51.194;4.098;2023-05-27T13:39:51;22.80;96.20
14529;DHT22;7351;51.194;4.098;2023-05-27T13:42:18;22.90;96.20
14529;DHT22;7351;51.194;4.098;2023-05-27T13:44:45;22.90;96.20
14529;DHT22;7351;51.194;4.098;2023-05-27T13:47:13;22.90;96.30
14529;DHT22;7351;51.194;4.098;2023-05-27T13:49:40;22.90;96.50
14529;DHT22;7351;51.194;4.098;2023-05-27T13:52:07;23.00;96.70
14529;DHT22;7351;51.194;4.098;2023-05-27T13:54:34;23.00;97.10
14529;DHT22;7351;51.194;4.098;2023-05-27T13:57:01;23.00;97.20
14529;DHT22;7351;51.194;4.098;2023-05-27T13:59:28;23.10;97.40
14529;DHT22;7351;51.194;4.098;2023-05-27T14:01:55;23.20;97.50
14529;DHT22;7351;51.194;4.098;2023-05-27T14:04:23;23.20;97.50
14529;DHT22;7351;51.194;4.098;2023-05-27T14:06:50;23.30;97.40
14529;DHT22;7351;51.194;4.098;2023-05-27T14:09:18;23.30;97.20
14529;DHT22;7351;51.194;4.098;2023-05-27T14:11:44;23.30;97.10
14529;DHT22;7351;51.194;4.098;2023-05-27T14:14:12;23.30;97.10
14529;DHT22;7351;51.194;4.098;2023-05-27T14:16:38;23.40;97.00
14529;DHT22;7351;51.194;4.098;2023-05-27T14:19:06;23.40;96.80
14529;DHT22;7351;51.194;4.098;2023-05-27T14:21:34;23.40;96.70
14529;DHT22;7351;51.194;4.098;2023-05-27T14:24:01;23.50;96.70
14529;DHT22;7351;51.194;4.098;2023-05-27T14:26:29;23.50;96.70
14529;DHT22;7351;51.194;4.098;2023-05-27T14:28:56;23.50;96.80
14529;DHT22;7351;51.194;4.098;2023-05-27T14:31:23;23.50;96.70
14529;DHT22;7351;51.194;4.098;2023-05-27T14:33:50;23.50;96.60
14529;DHT22;7351;51.194;4.098;2023-05-27T14:36:18;23.60;96.60
14529;DHT22;7351;51.194;4.098;2023-05-27T14:38:47;23.60;96.50
14529;DHT22;7351;51.194;4.098;2023-05-27T14:41:14;23.60;96.50
14529;DHT22;7351;51.194;4.098;2023-05-27T14:43:41;23.70;96.60
14529;DHT22;7351;51.194;4.098;2023-05-27T14:46:08;23.70;96.50
14529;DHT22;7351;51.194;4.098;2023-05-27T14:48:35;23.70;96.40
14529;DHT22;7351;51.194;4.098;2023-05-27T14:51:02;23.80;96.50
14529;DHT22;7351;51.194;4.098;2023-05-27T14:53:29;23.70;96.30
14529;DHT22;7351;51.194;4.098;2023-05-27T14:55:57;23.80;96.30
14529;DHT22;7351;51.194;4.098;2023-05-27T14:58:24;23.80;96.30
14529;DHT22;7351;51.194;4.098;2023-05-27T15:00:51;23.90;96.30
14529;DHT22;7351;51.194;4.098;2023-05-27T15:03:18;23.90;96.20
14529;DHT22;7351;51.194;4.098;2023-05-27T15:05:45;23.90;96.00
14529;DHT22;7351;51.194;4.098;2023-05-27T15:08:12;23.90;95.80
14529;DHT22;7351;51.194;4.098;2023-05-27T15:10:42;24.00;95.70
14529;DHT22;7351;51.194;4.098;2023-05-27T15:13:10;24.00;95.40
14529;DHT22;7351;51.194;4.098;2023-05-27T15:15:38;24.00;95.20
14529;DHT22;7351;51.194;4.098;2023-05-27T15:18:06;24.10;95.20
14529;DHT22;7351;51.194;4.098;2023-05-27T15:20:33;24.10;95.20
14529;DHT22;7351;51.194;4.098;2023-05-27T15:23:00;24.10;95.30
14529;DHT22;7351;51.194;4.098;2023-05-27T15:25:27;24.10;95.30
14529;DHT22;7351;51.194;4.098;2023-05-27T15:27:54;24.10;95.20
14529;DHT22;7351;51.194;4.098;2023-05-27T15:30:23;24.10;95.10
14529;DHT22;7351;51.194;4.098;2023-05-27T15:32:50;24.10;95.20
14529;DHT22;7351;51.194;4.098;2023-05-27T15:35:17;24.20;95.20
14529;DHT22;7351;51.194;4.098;2023-05-27T15:37:44;24.10;95.30
14529;DHT22;7351;51.194;4.098;2023-05-27T15:40:12;24.20;95.40
14529;DHT22;7351;51.194;4.098;2023-05-27T15:42:39;24.20;95.40
14529;DHT22;7351;51.194;4.098;2023-05-27T15:45:07;24.30;95.30
14529;DHT22;7351;51.194;4.098;2023-05-27T15:47:35;24.30;95.60
14529;DHT22;7351;51.194;4.098;2023-05-27T15:50:03;24.30;95.50
14529;DHT22;7351;51.194;4.098;2023-05-27T15:52:30;24.30;95.10